Time;durP1;ratioP1;P1;durP2;ratioP2;P2;SDS_P1;SDS_P2;PMS_P1;PMS_P2;Temp;Humidity;BMP_temperature;BMP_pressure;BME280_temperature;BME280_humidity;BME280_pressure;Samples;Min_cycle;Max_cycle;Signal;HPM_P1;HPM_P2
2022/12/23 00:01:41;;;;;;;;;;;;;;;8.17;100.00;98490.25;5091354;28;19950;-88
2022/12/23 00:04:07;;;;;;;;;;;;;;;8.20;100.00;98502.44;5074386;28;19920;-85
2022/12/23 00:06:32;;;;;;;;;;;;;;;8.17;100.00;98498.16;5074530;28;19924;-89
2022/12/23 00:08:58;;;;;;;;;;;;;;;8.21;100.00;98501.47;5074328;28;19916;-88
2022/12/23 00:11:24;;;;;;;;;;;;;;;8.22;100.00;98523.44;5093543;28;19959;-87
2022/12/23 00:16:34;;;;;;;;;;;;;;;8.28;100.00;98523.97;5094285;28;20027;-91
2022/12/23 00:19:00;;;;;;;;;;;;;;;7.38;100.00;98521.59;5087871;28;19927;-86
2022/12/23 00:21:25;;;;;;;;;;;;;;;6.96;100.00;98518.34;5093890;28;19920;-86
2022/12/23 00:23:50;;;;;;;;;;;;;;;6.70;100.00;98530.97;5092604;28;19916;-87
2022/12/23 00:26:19;;;;;;;;;;;;;;;6.62;100.00;98543.66;5093760;28;19942;-85
2022/12/23 00:28:48;;;;;;;;;;;;;;;6.52;100.00;98547.63;5091550;28;19927;-89
2022/12/23 00:31:13;;;;;;;;;;;;;;;6.41;100.00;98552.53;5090939;28;19920;-89
2022/12/23 00:33:41;;;;;;;;;;;;;;;6.35;100.00;98551.88;5092224;28;19916;-87
2022/12/23 00:36:12;;;;;;;;;;;;;;;6.28;100.00;98555.69;5092276;28;19920;-86
2022/12/23 00:44:05;;;;;;;;;;;;;;;6.14;100.00;98572.13;5085711;28;19927;-93
2022/12/23 00:46:31;;;;;;;;;;;;;;;6.08;100.00;98579.41;5085666;28;19928;-88
2022/12/23 00:51:40;;;;;;;;;;;;;;;6.08;100.00;98592.53;5093442;28;20382;-92
2022/12/23 00:54:06;;;;;;;;;;;;;;;6.09;100.00;98602.16;5093160;28;19916;-89
2022/12/23 00:56:31;;;;;;;;;;;;;;;5.91;100.00;98622.19;5091624;28;20381;-85
2022/12/23 00:58:57;;;;;;;;;;;;;;;5.94;100.00;98630.78;5090858;28;19924;-83
2022/12/23 01:06:51;;;;;;;;;;;;;;;5.92;100.00;98648.41;5091727;28;19928;-88
2022/12/23 01:09:17;;;;;;;;;;;;;;;5.83;100.00;98646.16;5081625;28;20308;-88
2022/12/23 01:11:42;;;;;;;;;;;;;;;5.79;100.00;98642.81;5071790;28;19971;-89
2022/12/23 01:14:11;;;;;;;;;;;;;;;5.85;100.00;98656.63;5073526;28;19977;-85
2022/12/23 01:16:37;;;;;;;;;;;;;;;5.68;100.00;98650.28;5085236;28;19920;-84
2022/12/23 01:19:03;;;;;;;;;;;;;;;5.67;100.00;98648.56;5091447;28;20382;-89
2022/12/23 01:21:28;;;;;;;;;;;;;;;5.71;100.00;98657.16;5086722;28;19916;-85
2022/12/23 01:23:54;;;;;;;;;;;;;;;5.62;100.00;98654.00;5091539;28;20325;-85
2022/12/23 01:26:19;;;;;;;;;;;;;;;5.68;100.00;98667.81;5091038;28;19920;-87
2022/12/23 01:28:45;;;;;;;;;;;;;;;5.70;100.00;98664.22;5091514;28;19975;-86
2022/12/23 01:31:10;;;;;;;;;;;;;;;5.66;100.00;98667.88;5083813;28;19927;-85
2022/12/23 01:33:35;;;;;;;;;;;;;;;5.78;100.00;98677.03;5093002;28;20371;-85
2022/12/23 01:36:01;;;;;;;;;;;;;;;5.65;100.00;98674.06;5091269;28;20462;-86
2022/12/23 01:38:27;;;;;;;;;;;;;;;5.72;100.00;98685.19;5089129;28;19916;-86
2022/12/23 01:40:53;;;;;;;;;;;;;;;5.74;100.00;98685.97;5090820;28;19966;-85
2022/12/23 01:43:19;;;;;;;;;;;;;;;5.71;100.00;98697.47;5086515;28;19923;-86
2022/12/23 01:45:44;;;;;;;;;;;;;;;5.69;100.00;98699.28;5091352;28;19916;-85
2022/12/23 01:48:09;;;;;;;;;;;;;;;5.74;100.00;98701.72;5091473;28;20004;-84
2022/12/23 01:50:41;;;;;;;;;;;;;;;5.74;100.00;98709.63;5090810;28;20412;-89
2022/12/23 01:53:06;;;;;;;;;;;;;;;5.68;100.00;98701.97;5089811;28;19920;-86
2022/12/23 01:55:34;;;;;;;;;;;;;;;5.71;100.00;98709.75;5093908;28;20074;-85
2022/12/23 01:58:06;;;;;;;;;;;;;;;5.61;100.00;98701.38;5095110;28;20358;-84
2022/12/23 02:09:15;;;;;;;;;;;;;;;5.63;100.00;98710.91;5096847;28;19923;-84
2022/12/23 02:11:43;;;;;;;;;;;;;;;5.55;100.00;98726.13;5096552;28;19923;-84
2022/12/23 02:17:20;;;;;;;;;;;;;;;5.53;100.00;98743.72;5096592;28;19977;-84
2022/12/23 02:20:04;;;;;;;;;;;;;;;5.61;100.00;98749.53;5095117;28;19916;-84
2022/12/23 02:22:35;;;;;;;;;;;;;;;5.60;100.00;98755.72;5093909;28;20325;-84
2022/12/23 02:25:10;;;;;;;;;;;;;;;5.61;100.00;98762.66;5093951;28;20381;-84
2022/12/23 02:27:38;;;;;;;;;;;;;;;7.40;100.00;98757.78;5123703;27;20450;-90
2022/12/23 02:30:21;;;;;;;;;;;;;;;6.22;100.00;98761.16;5107519;28;19920;-86
2022/12/23 03:26:17;;;;;;;;;;;;;;;5.45;100.00;98770.28;4993667;28;19925;-85
2022/12/23 03:29:02;;;;;;;;;;;;;;;5.37;100.00;98772.34;4992152;28;20008;-85
2022/12/23 03:31:46;;;;;;;;;;;;;;;5.43;100.00;98768.66;4977069;28;19924;-85
2022/12/23 03:37:59;;;;;;;;;;;;;;;;;;;;;
2022/12/23 03:40:34;;;;;;;;;;;;;;;5.40;100.00;98772.22;4973864;28;19941;-85
2022/12/23 03:43:02;;;;;;;;;;;;;;;5.49;100.00;98781.56;4988395;28;19918;-84
2022/12/23 03:45:30;;;;;;;;;;;;;;;5.44;100.00;98772.97;4976793;28;20385;-82
2022/12/23 03:47:59;;;;;;;;;;;;;;;5.41;100.00;98784.47;5009953;28;19914;-84
2022/12/23 03:50:36;;;;;;;;;;;;;;;;;;;;;
2022/12/23 03:53:18;;;;;;;;;;;;;;;5.35;100.00;98795.19;5015034;28;19935;-83
2022/12/23 03:55:47;;;;;;;;;;;;;;;5.33;100.00;98796.16;5013502;28;20020;-83
2022/12/23 03:58:12;;;;;;;;;;;;;;;5.36;100.00;98806.56;5012001;28;19936;-82
2022/12/23 04:00:42;;;;;;;;;;;;;;;5.37;100.00;98798.63;5014667;28;19917;-82
2022/12/23 04:03:18;;;;;;;;;;;;;;;5.34;100.00;98797.88;5014583;28;20283;-85
2022/12/23 04:06:19;;;;;;;;;;;;;;;;;;;;;
2022/12/23 04:30:45;;;;;;;;;;;;;;;6.39;100.00;98785.94;4877466;29;19926;-88
2022/12/23 04:33:50;;;;;;;;;;;;;;;;;;;;;
2022/12/23 04:43:01;;;;;;;;;;;;;;;;;;;;;
2022/12/23 04:48:24;;;;;;;;;;;;;;;;;;;;;
2022/12/23 04:51:22;;;;;;;;;;;;;;;;;;;;;
2022/12/23 04:54:21;;;;;;;;;;;;;;;;;;;;;
2022/12/23 04:56:51;;;;;;;;;;;;;;;6.93;100.00;98802.91;4896360;29;19930;-86
2022/12/23 04:59:34;;;;;;;;;;;;;;;;;;;;;
2022/12/23 05:02:00;;;;;;;;;;;;;;;6.98;100.00;98806.19;5005175;28;20274;-83
2022/12/23 05:04:25;;;;;;;;;;;;;;;7.01;100.00;98798.16;5013353;28;20016;-83
2022/12/23 05:06:50;;;;;;;;;;;;;;;7.04;100.00;98795.41;5012430;28;19917;-82
2022/12/23 05:09:15;;;;;;;;;;;;;;;7.07;100.00;98795.25;5013650;28;19964;-82
2022/12/23 05:11:41;;;;;;;;;;;;;;;7.10;100.00;98794.28;5013429;28;20360;-83
2022/12/23 05:14:08;;;;;;;;;;;;;;;7.09;100.00;98806.59;5010994;28;20008;-82
2022/12/23 05:16:33;;;;;;;;;;;;;;;7.14;100.00;98800.25;5013479;28;19921;-82
2022/12/23 08:58:26;;;;;;;;;;;;;;;7.76;100.00;98771.94;5041068;22;20429;-83
2022/12/23 09:00:51;;;;;;;;;;;;;;;7.77;100.00;98777.16;5011751;28;20007;-81
2022/12/23 09:03:16;;;;;;;;;;;;;;;7.78;100.00;98778.84;5005583;28;20282;-82
2022/12/23 09:05:42;;;;;;;;;;;;;;;7.79;100.00;98783.19;4999874;28;19957;-82
2022/12/23 09:08:07;;;;;;;;;;;;;;;7.80;100.00;98787.56;5003873;28;19922;-83
2022/12/23 09:10:53;;;;;;;;;;;;;;;7.81;100.00;98791.03;4998576;28;20012;-84
2022/12/23 09:13:18;;;;;;;;;;;;;;;7.82;100.00;98784.84;5000623;28;19929;-81
2022/12/23 09:15:53;;;;;;;;;;;;;;;7.82;100.00;98774.28;5009240;28;21590;-88
2022/12/23 09:18:18;;;;;;;;;;;;;;;7.84;100.00;98772.44;5003233;28;19944;-83
2022/12/23 09:20:51;;;;;;;;;;;;;;;7.82;100.00;98769.88;5013579;28;20365;-83
2022/12/23 09:23:16;;;;;;;;;;;;;;;7.84;100.00;98772.44;5013391;28;19968;-83
2022/12/23 09:25:44;;;;;;;;;;;;;;;7.85;100.00;98779.44;5009472;28;19968;-83
2022/12/23 09:28:11;;;;;;;;;;;;;;;7.86;100.00;98775.84;5004827;28;19918;-88
2022/12/23 09:30:42;;;;;;;;;;;;;;;7.86;100.00;98767.09;4997600;28;20036;-86
2022/12/23 09:33:09;;;;;;;;;;;;;;;7.88;100.00;98763.47;5008193;28;19921;-84
2022/12/23 09:35:45;;;;;;;;;;;;;;;7.90;100.00;98760.75;5003477;28;19976;-84
2022/12/23 09:38:11;;;;;;;;;;;;;;;7.89;100.00;98759.03;5002627;28;20411;-81
2022/12/23 09:40:37;;;;;;;;;;;;;;;7.90;100.00;98752.84;5023517;28;19917;-82
2022/12/23 09:43:05;;;;;;;;;;;;;;;7.91;100.00;98752.72;5012013;28;19917;-81
2022/12/23 09:45:51;;;;;;;;;;;;;;;7.90;100.00;98748.41;5009707;28;20351;-81
2022/12/23 10:05:06;;;;;;;;;;;;;;;7.93;100.00;98739.47;4901960;29;20017;-90
2022/12/23 10:13:39;;;;;;;;;;;;;;;7.94;100.00;98728.00;5074565;22;19932;-92
2022/12/23 10:16:24;;;;;;;;;;;;;;;7.97;100.00;98727.84;5014277;28;19987;-84
2022/12/23 10:18:49;;;;;;;;;;;;;;;7.97;100.00;98715.50;4994660;28;19925;-86
2022/12/23 10:21:17;;;;;;;;;;;;;;;7.99;100.00;98720.69;4994096;28;20288;-84
2022/12/23 10:23:55;;;;;;;;;;;;;;;7.98;100.00;98716.38;4994538;28;19926;-84
2022/12/23 10:26:23;;;;;;;;;;;;;;;7.98;100.00;98698.75;4993458;28;19925;-84
2022/12/23 10:31:59;;;;;;;;;;;;;;;8.00;100.00;98688.97;5165895;22;19975;-87
2022/12/23 10:34:55;;;;;;;;;;;;;;;8.01;100.00;98679.31;5034829;28;20300;-86
2022/12/23 10:37:32;;;;;;;;;;;;;;;8.02;100.00;98675.72;5017567;28;19919;-84
2022/12/23 10:40:39;;;;;;;;;;;;;;;8.02;100.00;98659.88;5033892;28;20427;-83
2022/12/23 10:43:14;;;;;;;;;;;;;;;8.01;100.00;98663.47;4997802;28;19928;-85
2022/12/23 10:45:49;;;;;;;;;;;;;;;;;;;;;
2022/12/23 10:48:30;;;;;;;;;;;;;;;8.03;100.00;98655.47;5016707;28;20001;-84
2022/12/23 10:51:24;;;;;;;;;;;;;;;8.04;100.00;98655.41;5036531;28;20298;-88
2022/12/23 10:53:55;;;;;;;;;;;;;;;8.04;100.00;98642.22;4960777;28;19922;-83
2022/12/23 10:56:39;;;;;;;;;;;;;;;;;;;;;
2022/12/23 10:59:05;;;;;;;;;;;;;;;8.05;100.00;98633.34;5036939;28;20403;-83
2022/12/23 11:01:35;;;;;;;;;;;;;;;8.06;100.00;98626.28;5042430;28;20866;-85
2022/12/23 11:04:01;;;;;;;;;;;;;;;8.05;100.00;98614.88;5046297;28;19917;-84
2022/12/23 11:06:26;;;;;;;;;;;;;;;8.03;100.00;98614.13;5042518;28;20372;-84
2022/12/23 11:08:52;;;;;;;;;;;;;;;8.03;100.00;98600.94;5036353;28;19925;-88
2022/12/23 11:11:25;;;;;;;;;;;;;;;8.04;100.00;98604.41;5036741;28;19925;-85
2022/12/23 11:14:13;;;;;;;;;;;;;;;8.05;100.00;98593.78;5028461;28;19918;-87
2022/12/23 11:17:04;;;;;;;;;;;;;;;8.04;100.00;98599.13;5040280;28;19933;-86
2022/12/23 11:19:48;;;;;;;;;;;;;;;8.06;100.00;98592.84;5036065;28;19956;-87
2022/12/23 11:22:22;;;;;;;;;;;;;;;8.04;100.00;98583.31;5012948;28;19994;-83
2022/12/23 11:24:56;;;;;;;;;;;;;;;8.04;100.00;98578.91;5036825;28;19917;-84
2022/12/23 11:27:42;;;;;;;;;;;;;;;8.05;100.00;98574.47;5023539;28;19924;-85
2022/12/23 11:30:43;;;;;;;;;;;;;;;;;;;;;
2022/12/23 11:47:20;;;;;;;;;;;;;;;8.11;100.00;98538.06;4124707;23;19925;-91
2022/12/23 11:49:48;;;;;;;;;;;;;;;8.11;100.00;98538.06;5056564;28;19969;-84
2022/12/23 11:52:16;;;;;;;;;;;;;;;8.12;100.00;98529.22;5055022;28;20011;-84
2022/12/23 11:54:57;;;;;;;;;;;;;;;8.09;100.00;98524.09;5072965;28;19920;-83
2022/12/23 11:57:41;;;;;;;;;;;;;;;8.10;100.00;98520.50;5072600;28;19963;-91
2022/12/23 12:00:28;;;;;;;;;;;;;;;8.12;100.00;98517.78;5053206;28;20403;-83
2022/12/23 12:03:13;;;;;;;;;;;;;;;8.13;100.00;98519.50;5064083;28;19940;-85
2022/12/23 12:05:44;;;;;;;;;;;;;;;8.15;100.00;98509.72;5071636;28;19922;-83
2022/12/23 12:08:12;;;;;;;;;;;;;;;8.13;100.00;98493.97;5055631;28;20015;-82
2022/12/23 12:10:38;;;;;;;;;;;;;;;8.15;100.00;98501.81;5074118;28;19947;-83
2022/12/23 12:13:06;;;;;;;;;;;;;;;8.14;100.00;98500.97;5071060;28;19929;-82
2022/12/23 12:15:51;;;;;;;;;;;;;;;8.12;100.00;98497.56;5050892;28;19962;-82
2022/12/23 12:18:18;;;;;;;;;;;;;;;8.15;100.00;98497.41;5056461;28;20007;-84
2022/12/23 12:21:05;;;;;;;;;;;;;;;8.13;100.00;98499.25;5073507;28;19940;-83
2022/12/23 12:23:41;;;;;;;;;;;;;;;8.14;100.00;98490.41;5071537;28;19931;-84
2022/12/23 12:26:12;;;;;;;;;;;;;;;8.59;100.00;98487.19;5059861;28;19928;-80
2022/12/23 12:28:42;;;;;;;;;;;;;;;11.52;100.00;98463.97;5081562;28;19920;-82
2022/12/23 12:31:39;;;;;;;;;;;;;;;13.51;100.00;98461.31;5037193;28;19925;-79
2022/12/23 12:34:20;;;;;;;;;;;;;;;11.42;100.00;98467.28;5003246;28;20283;-79
2022/12/23 12:38:46;;;;;;;;;;;;;;;12.50;100.00;98461.63;5076755;27;19932;-81
2022/12/23 12:41:21;;;;;;;;;;;;;;;12.23;100.00;98465.28;5073998;28;20290;-85
2022/12/23 12:43:55;;;;;;;;;;;;;;;12.09;100.00;98463.59;5081642;28;19943;-84
2022/12/23 12:46:26;;;;;;;;;;;;;;;12.37;100.00;98466.13;5075425;28;19925;-85
2022/12/23 12:49:03;;;;;;;;;;;;;;;12.48;100.00;98461.75;5088232;28;19917;-86
2022/12/23 12:51:32;;;;;;;;;;;;;;;12.43;100.00;98463.88;5083186;28;19924;-82
2022/12/23 12:54:15;;;;;;;;;;;;;;;12.21;100.00;98463.72;5078252;28;19920;-81
2022/12/23 12:56:46;;;;;;;;;;;;;;;11.93;100.00;98455.00;5107507;28;19920;-84
2022/12/23 12:59:15;;;;;;;;;;;;;;;12.32;100.00;98446.06;5109474;27;20000;-84
2022/12/23 13:02:06;;;;;;;;;;;;;;;;;;;;;
2022/12/23 13:04:37;;;;;;;;;;;;;;;11.93;100.00;98455.84;5074459;28;19928;-86
2022/12/23 13:07:03;;;;;;;;;;;;;;;12.40;100.00;98450.81;5082757;28;20058;-85
2022/12/23 13:09:49;;;;;;;;;;;;;;;12.42;100.00;98440.94;5102728;28;20362;-87
2022/12/23 13:12:17;;;;;;;;;;;;;;;12.56;100.00;98441.72;5084595;28;19920;-86
2022/12/23 13:14:45;;;;;;;;;;;;;;;12.54;100.00;98445.38;5086037;28;20260;-81
2022/12/23 13:17:29;;;;;;;;;;;;;;;12.29;100.00;98440.97;5075853;28;20363;-82
2022/12/23 13:20:08;;;;;;;;;;;;;;;12.48;100.00;98444.97;5087815;28;19921;-82
2022/12/23 13:22:34;;;;;;;;;;;;;;;12.65;100.00;98441.06;5077887;28;20311;-88
2022/12/23 13:25:03;;;;;;;;;;;;;;;12.97;100.00;98443.16;5075581;28;20011;-85
2022/12/23 13:27:32;;;;;;;;;;;;;;;12.64;100.00;98440.22;5103366;28;19947;-83
2022/12/23 13:30:04;;;;;;;;;;;;;;;12.85;100.00;98437.81;5091918;28;20446;-84
2022/12/23 13:32:36;;;;;;;;;;;;;;;12.42;100.00;98438.25;5081279;28;20359;-84
2022/12/23 13:35:29;;;;;;;;;;;;;;;12.75;100.00;98446.56;5092405;28;19924;-85
2022/12/23 13:37:57;;;;;;;;;;;;;;;12.66;100.00;98432.97;5081297;28;19927;-86
2022/12/23 13:40:22;;;;;;;;;;;;;;;12.43;100.00;98441.75;5084922;28;20421;-85
2022/12/23 13:42:51;;;;;;;;;;;;;;;12.77;100.00;98429.53;5070177;28;19928;-85
2022/12/23 13:45:18;;;;;;;;;;;;;;;12.29;100.00;98429.50;5079982;28;20268;-82
2022/12/23 13:48:07;;;;;;;;;;;;;;;12.71;100.00;98435.31;5070408;28;19931;-81
2022/12/23 13:50:36;;;;;;;;;;;;;;;12.48;100.00;98435.19;5066975;28;19920;-81
2022/12/23 13:53:19;;;;;;;;;;;;;;;12.50;100.00;98427.94;5060018;28;19921;-86
2022/12/23 13:55:48;;;;;;;;;;;;;;;13.05;100.00;98417.72;5078299;28;19920;-80
2022/12/23 13:58:34;;;;;;;;;;;;;;;;;;;;;
2022/12/23 14:01:09;;;;;;;;;;;;;;;12.59;100.00;98410.50;5061103;28;20291;-87
2022/12/23 14:03:36;;;;;;;;;;;;;;;12.48;100.00;98418.41;5074768;28;19920;-83
2022/12/23 14:06:39;;;;;;;;;;;;;;;12.66;100.00;98421.50;5057250;28;20338;-85
2022/12/23 14:09:13;;;;;;;;;;;;;;;12.76;100.00;98430.50;5064652;28;19927;-88
2022/12/23 14:11:57;;;;;;;;;;;;;;;12.64;100.00;98418.13;5078473;28;19920;-88
2022/12/23 14:14:23;;;;;;;;;;;;;;;12.82;100.00;98421.25;5075976;28;19920;-86
2022/12/23 14:17:11;;;;;;;;;;;;;;;12.85;100.00;98431.66;5089689;28;19932;-79
2022/12/23 14:19:36;;;;;;;;;;;;;;;12.67;100.00;98424.06;5098509;28;20326;-83
2022/12/23 14:22:19;;;;;;;;;;;;;;;12.84;100.00;98420.19;5074283;28;19913;-82
2022/12/23 14:25:03;;;;;;;;;;;;;;;12.75;100.00;98425.28;5072110;28;20272;-86
2022/12/23 14:27:40;;;;;;;;;;;;;;;12.58;100.00;98434.50;5078542;28;19917;-84
2022/12/23 14:30:16;;;;;;;;;;;;;;;12.13;100.00;98430.56;5062347;28;19924;-85
2022/12/23 14:33:01;;;;;;;;;;;;;;;10.59;100.00;98430.28;5067729;28;20003;-80
2022/12/23 14:35:47;;;;;;;;;;;;;;;9.67;100.00;98450.09;5063143;28;19917;-79
2022/12/23 14:38:15;;;;;;;;;;;;;;;9.18;100.00;98445.94;5063397;28;19924;-81
2022/12/23 14:40:40;;;;;;;;;;;;;;;8.93;100.00;98451.78;5067134;28;20390;-85
2022/12/23 14:43:21;;;;;;;;;;;;;;;8.68;100.00;98449.66;5073564;28;19920;-81
2022/12/23 14:45:47;;;;;;;;;;;;;;;8.50;100.00;98452.44;5075974;28;20291;-83
2022/12/23 14:48:30;;;;;;;;;;;;;;;8.47;100.00;98452.59;5062737;28;19920;-82
2022/12/23 14:50:57;;;;;;;;;;;;;;;8.28;100.00;98442.16;5074361;28;20403;-84
2022/12/23 14:53:24;;;;;;;;;;;;;;;8.16;100.00;98434.91;5078154;28;19921;-79
2022/12/23 14:55:50;;;;;;;;;;;;;;;8.05;100.00;98453.13;5061727;28;19947;-80
2022/12/23 14:58:28;;;;;;;;;;;;;;;7.95;100.00;98448.31;5071956;28;19922;-80
2022/12/23 15:01:16;;;;;;;;;;;;;;;7.91;100.00;98461.75;5072034;28;19927;-80
2022/12/23 15:03:50;;;;;;;;;;;;;;;7.72;100.00;98462.75;5074435;28;20363;-81
2022/12/23 15:06:18;;;;;;;;;;;;;;;7.74;100.00;98476.69;5074352;28;20029;-82
2022/12/23 15:08:44;;;;;;;;;;;;;;;7.66;100.00;98462.19;5071940;28;19920;-81
2022/12/23 15:11:19;;;;;;;;;;;;;;;7.72;100.00;98477.69;5082816;28;19975;-81
2022/12/23 15:13:49;;;;;;;;;;;;;;;7.57;100.00;98479.34;5063475;28;19926;-90
2022/12/23 15:16:16;;;;;;;;;;;;;;;7.55;100.00;98476.78;5068886;28;20405;-81
2022/12/23 15:18:51;;;;;;;;;;;;;;;7.56;100.00;98477.63;5065313;28;19920;-81
2022/12/23 15:21:17;;;;;;;;;;;;;;;7.40;100.00;98465.25;5074134;28;19917;-85
2022/12/23 15:23:47;;;;;;;;;;;;;;;7.42;100.00;98476.56;5064917;28;19944;-82
2022/12/23 15:26:12;;;;;;;;;;;;;;;7.28;100.00;98479.88;5064624;28;19999;-84
2022/12/23 15:28:38;;;;;;;;;;;;;;;7.35;100.00;98479.56;5074046;28;20015;-80
2022/12/23 15:31:04;;;;;;;;;;;;;;;7.34;100.00;98486.63;5073829;28;19917;-83
2022/12/23 15:33:33;;;;;;;;;;;;;;;7.25;100.00;98485.31;5089378;28;19999;-82
2022/12/23 15:35:59;;;;;;;;;;;;;;;7.20;100.00;98491.75;5087795;28;20418;-82
2022/12/23 15:38:26;;;;;;;;;;;;;;;7.17;100.00;98486.63;5073791;28;19917;-82
2022/12/23 15:41:00;;;;;;;;;;;;;;;7.15;100.00;98501.63;5074789;28;19927;-82
2022/12/23 15:43:25;;;;;;;;;;;;;;;7.05;100.00;98507.38;5071403;28;20432;-82
2022/12/23 15:45:51;;;;;;;;;;;;;;;7.05;100.00;98496.84;5073596;28;20003;-78
2022/12/23 15:48:22;;;;;;;;;;;;;;;7.06;100.00;98503.78;5073411;28;19924;-80
2022/12/23 15:50:49;;;;;;;;;;;;;;;7.02;100.00;98498.75;5087805;28;20432;-82
2022/12/23 15:53:18;;;;;;;;;;;;;;;6.94;100.00;98504.41;5073448;28;19916;-88
2022/12/23 15:55:45;;;;;;;;;;;;;;;6.96;100.00;98506.97;5056372;28;19928;-84
2022/12/23 15:58:18;;;;;;;;;;;;;;;6.89;100.00;98511.66;5084198;28;19935;-84
2022/12/23 16:00:52;;;;;;;;;;;;;;;6.87;100.00;98510.88;5085421;28;19916;-85
2022/12/23 16:03:34;;;;;;;;;;;;;;;6.85;100.00;98528.56;5053183;28;19917;-84
2022/12/23 16:06:07;;;;;;;;;;;;;;;6.85;100.00;98520.66;5085685;28;19924;-84
2022/12/23 16:08:32;;;;;;;;;;;;;;;6.76;100.00;98515.81;5065149;28;19976;-85
2022/12/23 16:11:04;;;;;;;;;;;;;;;6.73;100.00;98525.56;5061956;28;20140;-79
2022/12/23 16:13:31;;;;;;;;;;;;;;;6.70;100.00;98533.63;5105504;28;19969;-81
2022/12/23 16:16:18;;;;;;;;;;;;;;;6.67;100.00;98546.03;5063259;28;20019;-90
2022/12/23 16:19:27;;;;;;;;;;;;;;;6.67;100.00;98543.41;5072094;28;20252;-89
2022/12/23 16:21:51;;;;;;;;;;;;;;;6.61;100.00;98543.72;5054950;28;20467;-87
2022/12/23 16:24:17;;;;;;;;;;;;;;;6.62;100.00;98542.78;5069729;28;19924;-82
2022/12/23 16:26:42;;;;;;;;;;;;;;;6.58;100.00;98552.59;5079543;28;20430;-81
2022/12/23 16:29:09;;;;;;;;;;;;;;;6.52;100.00;98552.88;5072705;28;20007;-82
2022/12/23 16:31:36;;;;;;;;;;;;;;;6.53;100.00;98562.50;5069702;28;19959;-81
2022/12/23 16:34:03;;;;;;;;;;;;;;;6.50;100.00;98565.25;5082015;28;19920;-79
2022/12/23 16:36:28;;;;;;;;;;;;;;;6.45;100.00;98560.22;5070646;28;19920;-81
2022/12/23 16:38:59;;;;;;;;;;;;;;;6.45;100.00;98567.25;5069742;28;20272;-83
2022/12/23 16:41:24;;;;;;;;;;;;;;;6.44;100.00;98565.53;5083289;28;19921;-84
2022/12/23 16:43:49;;;;;;;;;;;;;;;6.44;100.00;98568.16;5067673;28;19927;-81
2022/12/23 16:46:16;;;;;;;;;;;;;;;6.41;100.00;98568.31;5072761;28;19994;-79
2022/12/23 16:48:47;;;;;;;;;;;;;;;6.40;100.00;98575.34;5069586;28;19943;-85
2022/12/23 16:51:15;;;;;;;;;;;;;;;6.44;100.00;98570.81;5054192;28;19921;-81
2022/12/23 16:53:41;;;;;;;;;;;;;;;6.44;100.00;98590.06;5059936;28;19916;-86
2022/12/23 16:56:10;;;;;;;;;;;;;;;6.43;100.00;98595.41;5070346;28;19927;-79
2022/12/23 16:58:36;;;;;;;;;;;;;;;6.39;100.00;98583.31;5072826;28;19920;-78
2022/12/23 17:01:01;;;;;;;;;;;;;;;6.35;100.00;98591.34;5072767;28;19923;-81
2022/12/23 17:03:27;;;;;;;;;;;;;;;6.34;100.00;98594.88;5070704;28;20014;-80
2022/12/23 17:05:52;;;;;;;;;;;;;;;6.35;100.00;98599.25;5072739;28;20030;-79
2022/12/23 17:08:17;;;;;;;;;;;;;;;6.35;100.00;98603.63;5071458;28;19923;-80
2022/12/23 17:10:46;;;;;;;;;;;;;;;6.29;100.00;98614.44;5072744;28;20275;-83
2022/12/23 17:13:12;;;;;;;;;;;;;;;6.29;100.00;98609.19;5071228;28;19917;-82
2022/12/23 17:15:37;;;;;;;;;;;;;;;6.29;100.00;98612.66;5071490;28;19967;-82
2022/12/23 17:18:03;;;;;;;;;;;;;;;6.26;100.00;98610.16;5069062;28;19982;-81
2022/12/23 17:20:29;;;;;;;;;;;;;;;6.24;100.00;98609.38;5072619;28;19978;-83
2022/12/23 17:22:56;;;;;;;;;;;;;;;6.25;100.00;98612.88;5072954;28;19912;-82
2022/12/23 17:25:24;;;;;;;;;;;;;;;6.26;100.00;98610.16;5076287;28;19925;-81
2022/12/23 17:27:50;;;;;;;;;;;;;;;6.24;100.00;98601.50;5075018;28;19961;-83
2022/12/23 17:30:16;;;;;;;;;;;;;;;6.21;100.00;98609.53;5076002;28;19922;-81
2022/12/23 17:32:42;;;;;;;;;;;;;;;6.17;100.00;98614.06;5074874;28;19942;-80
2022/12/23 17:35:09;;;;;;;;;;;;;;;6.21;100.00;98627.06;5075984;28;20287;-80
2022/12/23 17:37:34;;;;;;;;;;;;;;;6.14;100.00;98634.38;5075941;28;19982;-80
2022/12/23 17:40:00;;;;;;;;;;;;;;;6.17;100.00;98636.88;5076014;28;20371;-82
2022/12/23 17:42:25;;;;;;;;;;;;;;;6.16;100.00;98640.44;5070176;28;19928;-83
2022/12/23 17:44:50;;;;;;;;;;;;;;;6.13;100.00;98651.94;5075812;28;19916;-81
2022/12/23 17:47:17;;;;;;;;;;;;;;;6.13;100.00;98651.09;5074322;28;19931;-83
2022/12/23 17:49:43;;;;;;;;;;;;;;;6.20;100.00;98657.78;5074741;28;19921;-83
2022/12/23 17:52:16;;;;;;;;;;;;;;;6.10;100.00;98653.84;5074699;28;19924;-81
2022/12/23 17:54:42;;;;;;;;;;;;;;;6.15;100.00;98657.13;5069698;28;19960;-82
2022/12/23 17:57:26;;;;;;;;;;;;;;;6.14;100.00;98665.94;5054507;28;19956;-82
2022/12/23 17:59:52;;;;;;;;;;;;;;;6.08;100.00;98663.56;5071115;28;19921;-81
2022/12/23 18:02:22;;;;;;;;;;;;;;;6.10;100.00;98653.84;5074372;28;19928;-85
2022/12/23 18:04:48;;;;;;;;;;;;;;;6.09;100.00;98660.00;5059133;28;20015;-83
2022/12/23 18:07:17;;;;;;;;;;;;;;;6.05;100.00;98663.69;5059508;28;20020;-84
2022/12/23 18:09:42;;;;;;;;;;;;;;;6.05;100.00;98666.31;5075331;28;19916;-83
2022/12/23 18:12:19;;;;;;;;;;;;;;;6.05;100.00;98661.06;5073847;28;19916;-89
2022/12/23 18:14:44;;;;;;;;;;;;;;;6.02;100.00;98669.09;5074763;28;19916;-81
2022/12/23 18:17:13;;;;;;;;;;;;;;;5.99;100.00;98670.91;5075292;28;20363;-79
2022/12/23 18:19:38;;;;;;;;;;;;;;;5.96;100.00;98673.66;5075271;28;20291;-78
2022/12/23 18:22:03;;;;;;;;;;;;;;;6.02;100.00;98679.63;5075299;28;19913;-82
2022/12/23 18:24:29;;;;;;;;;;;;;;;5.99;100.00;98689.31;5066005;28;20482;-79
2022/12/23 18:26:54;;;;;;;;;;;;;;;6.00;100.00;98735.75;5054620;28;19949;-79
2022/12/23 18:29:19;;;;;;;;;;;;;;;6.09;100.00;98725.75;5072805;28;20329;-84
2022/12/23 18:31:46;;;;;;;;;;;;;;;6.02;100.00;98709.38;5075120;28;19923;-80
2022/12/23 18:34:15;;;;;;;;;;;;;;;6.14;100.00;98747.47;5065557;28;19917;-82
2022/12/23 18:36:40;;;;;;;;;;;;;;;6.13;100.00;98751.03;5054938;28;20387;-80
2022/12/23 18:39:05;;;;;;;;;;;;;;;6.06;100.00;98757.44;5055608;28;19921;-81
2022/12/23 18:41:30;;;;;;;;;;;;;;;5.97;100.00;98745.53;5053582;28;20382;-82
2022/12/23 18:44:25;;;;;;;;;;;;;;;6.03;100.00;98754.94;5064980;28;20443;-89
2022/12/23 18:46:50;;;;;;;;;;;;;;;5.92;100.00;98758.84;5073676;28;20011;-79
2022/12/23 18:49:16;;;;;;;;;;;;;;;7.00;100.00;98767.47;5067854;28;20015;-82
2022/12/23 18:51:41;;;;;;;;;;;;;;;6.28;100.00;98773.22;5054907;28;19956;-88
2022/12/23 18:54:08;;;;;;;;;;;;;;;6.12;100.00;98770.34;5060180;28;20450;-82
2022/12/23 18:56:33;;;;;;;;;;;;;;;6.08;100.00;98769.63;5064553;28;19972;-82
2022/12/23 18:58:59;;;;;;;;;;;;;;;5.93;100.00;98767.56;5070172;28;20011;-85
2022/12/23 19:01:24;;;;;;;;;;;;;;;6.02;100.00;98769.88;5070870;28;19955;-82
2022/12/23 19:03:49;;;;;;;;;;;;;;;5.93;100.00;98760.53;5073561;28;19990;-83
2022/12/23 19:06:15;;;;;;;;;;;;;;;5.87;100.00;98768.69;5063879;28;19921;-82
2022/12/23 19:08:43;;;;;;;;;;;;;;;5.93;100.00;98760.53;5054424;28;19927;-83
2022/12/23 19:11:10;;;;;;;;;;;;;;;6.07;100.00;98767.06;5101005;28;20337;-81
2022/12/23 19:13:35;;;;;;;;;;;;;;;5.96;100.00;98768.34;5068799;28;20264;-82
2022/12/23 19:16:01;;;;;;;;;;;;;;;6.10;100.00;98761.69;5066880;28;19920;-86
2022/12/23 19:18:26;;;;;;;;;;;;;;;5.97;100.00;98767.44;5074309;28;20049;-81
2022/12/23 19:20:51;;;;;;;;;;;;;;;6.03;100.00;98757.56;5068802;28;20361;-84
2022/12/23 19:23:16;;;;;;;;;;;;;;;6.10;100.00;98762.53;5070812;28;19928;-82
2022/12/23 19:25:42;;;;;;;;;;;;;;;6.04;100.00;98772.44;5053517;28;19921;-87
2022/12/23 19:28:08;;;;;;;;;;;;;;;6.06;100.00;98786.38;5098129;28;19951;-84
2022/12/23 19:30:33;;;;;;;;;;;;;;;5.96;100.00;98783.22;5073329;28;20019;-81
2022/12/23 19:32:59;;;;;;;;;;;;;;;6.10;100.00;98782.72;5071947;28;19923;-79
2022/12/23 19:35:24;;;;;;;;;;;;;;;5.93;100.00;98765.78;5053395;28;19917;-79
2022/12/23 19:37:49;;;;;;;;;;;;;;;6.00;100.00;98772.56;5085057;28;19928;-83
2022/12/23 19:40:15;;;;;;;;;;;;;;;6.02;100.00;98782.19;5062146;28;20295;-84